sensor_id;sensor_type;location;lat;lon;timestamp;P1;durP1;ratioP1;P2;durP2;ratioP2
5730;SDS011;2890;51.950;7.668;2023-10-19T00:00:13;38.57;;;22.53;;
5730;SDS011;2890;51.950;7.668;2023-10-19T00:02:48;46.83;;;24.87;;
5730;SDS011;2890;51.950;7.668;2023-10-19T00:05:17;35.67;;;23.73;;
5730;SDS011;2890;51.950;7.668;2023-10-19T00:07:45;47.80;;;25.00;;
5730;SDS011;2890;51.950;7.668;2023-10-19T00:10:12;44.37;;;25.70;;
5730;SDS011;2890;51.950;7.668;2023-10-19T00:12:41;52.47;;;25.93;;
5730;SDS011;2890;51.950;7.668;2023-10-19T00:15:09;61.47;;;27.80;;
5730;SDS011;2890;51.950;7.668;2023-10-19T00:17:35;52.00;;;26.67;;
5730;SDS011;2890;51.950;7.668;2023-10-19T00:20:03;61.43;;;26.27;;
5730;SDS011;2890;51.950;7.668;2023-10-19T00:22:54;51.67;;;26.07;;
5730;SDS011;2890;51.950;7.668;2023-10-19T00:25:22;78.83;;;28.00;;
5730;SDS011;2890;51.950;7.668;2023-10-19T00:27:49;44.77;;;26.20;;
5730;SDS011;2890;51.950;7.668;2023-10-19T00:30:15;59.47;;;28.43;;
5730;SDS011;2890;51.950;7.668;2023-10-19T00:32:46;41.87;;;25.07;;
5730;SDS011;2890;51.950;7.668;2023-10-19T00:35:12;60.63;;;28.10;;
5730;SDS011;2890;51.950;7.668;2023-10-19T00:38:00;61.97;;;26.90;;
5730;SDS011;2890;51.950;7.668;2023-10-19T00:40:49;49.70;;;24.70;;
5730;SDS011;2890;51.950;7.668;2023-10-19T00:43:25;57.20;;;27.87;;
5730;SDS011;2890;51.950;7.668;2023-10-19T00:45:52;68.10;;;28.57;;
5730;SDS011;2890;51.950;7.668;2023-10-19T00:48:19;83.07;;;29.77;;
5730;SDS011;2890;51.950;7.668;2023-10-19T00:50:48;87.87;;;31.30;;
5730;SDS011;2890;51.950;7.668;2023-10-19T00:53:19;61.90;;;27.30;;
5730;SDS011;2890;51.950;7.668;2023-10-19T00:55:46;62.63;;;29.50;;
5730;SDS011;2890;51.950;7.668;2023-10-19T00:58:13;93.03;;;32.43;;
5730;SDS011;2890;51.950;7.668;2023-10-19T01:00:43;74.13;;;30.87;;
5730;SDS011;2890;51.950;7.668;2023-10-19T01:03:10;65.27;;;30.70;;
5730;SDS011;2890;51.950;7.668;2023-10-19T01:05:42;72.03;;;31.40;;
5730;SDS011;2890;51.950;7.668;2023-10-19T01:08:13;89.10;;;32.67;;
5730;SDS011;2890;51.950;7.668;2023-10-19T01:10:49;93.27;;;33.37;;
5730;SDS011;2890;51.950;7.668;2023-10-19T01:13:17;100.00;;;34.20;;
5730;SDS011;2890;51.950;7.668;2023-10-19T01:15:46;70.07;;;32.40;;
5730;SDS011;2890;51.950;7.668;2023-10-19T01:18:14;92.40;;;32.87;;
5730;SDS011;2890;51.950;7.668;2023-10-19T01:20:42;89.77;;;33.37;;
5730;SDS011;2890;51.950;7.668;2023-10-19T01:23:17;83.30;;;32.07;;
5730;SDS011;2890;51.950;7.668;2023-10-19T01:25:49;80.53;;;32.23;;
5730;SDS011;2890;51.950;7.668;2023-10-19T01:28:25;77.70;;;30.93;;
5730;SDS011;2890;51.950;7.668;2023-10-19T01:30:54;83.93;;;33.30;;
5730;SDS011;2890;51.950;7.668;2023-10-19T01:33:20;61.30;;;30.67;;
5730;SDS011;2890;51.950;7.668;2023-10-19T01:35:47;80.00;;;32.73;;
5730;SDS011;2890;51.950;7.668;2023-10-19T01:38:32;101.40;;;34.90;;
5730;SDS011;2890;51.950;7.668;2023-10-19T01:41:00;78.90;;;32.70;;
5730;SDS011;2890;51.950;7.668;2023-10-19T01:43:26;96.87;;;35.20;;
5730;SDS011;2890;51.950;7.668;2023-10-19T01:45:55;76.97;;;31.47;;
5730;SDS011;2890;51.950;7.668;2023-10-19T01:48:21;87.93;;;32.90;;
5730;SDS011;2890;51.950;7.668;2023-10-19T01:50:53;85.37;;;33.53;;
5730;SDS011;2890;51.950;7.668;2023-10-19T01:53:19;105.80;;;34.90;;
5730;SDS011;2890;51.950;7.668;2023-10-19T01:55:51;94.73;;;34.37;;
5730;SDS011;2890;51.950;7.668;2023-10-19T01:58:23;78.10;;;33.50;;
5730;SDS011;2890;51.950;7.668;2023-10-19T02:00:50;64.40;;;30.73;;
5730;SDS011;2890;51.950;7.668;2023-10-19T02:03:19;111.30;;;36.47;;
5730;SDS011;2890;51.950;7.668;2023-10-19T02:05:46;133.07;;;38.63;;
5730;SDS011;2890;51.950;7.668;2023-10-19T02:08:14;90.20;;;35.00;;
5730;SDS011;2890;51.950;7.668;2023-10-19T02:10:45;66.10;;;32.53;;
5730;SDS011;2890;51.950;7.668;2023-10-19T02:13:13;94.77;;;36.50;;
5730;SDS011;2890;51.950;7.668;2023-10-19T02:15:41;83.33;;;35.93;;
5730;SDS011;2890;51.950;7.668;2023-10-19T02:18:07;83.60;;;34.47;;
5730;SDS011;2890;51.950;7.668;2023-10-19T02:20:34;72.33;;;34.20;;
5730;SDS011;2890;51.950;7.668;2023-10-19T02:22:59;101.23;;;37.23;;
5730;SDS011;2890;51.950;7.668;2023-10-19T02:25:28;78.83;;;35.80;;
5730;SDS011;2890;51.950;7.668;2023-10-19T02:27:59;89.77;;;35.70;;
5730;SDS011;2890;51.950;7.668;2023-10-19T02:30:25;78.07;;;34.57;;
5730;SDS011;2890;51.950;7.668;2023-10-19T02:32:52;99.37;;;37.13;;
5730;SDS011;2890;51.950;7.668;2023-10-19T02:35:18;84.77;;;35.20;;
5730;SDS011;2890;51.950;7.668;2023-10-19T02:37:44;112.37;;;36.90;;
5730;SDS011;2890;51.950;7.668;2023-10-19T02:40:10;82.80;;;35.77;;
5730;SDS011;2890;51.950;7.668;2023-10-19T02:42:44;103.80;;;36.80;;
5730;SDS011;2890;51.950;7.668;2023-10-19T02:45:12;89.97;;;37.07;;
5730;SDS011;2890;51.950;7.668;2023-10-19T02:47:41;83.67;;;35.30;;
5730;SDS011;2890;51.950;7.668;2023-10-19T02:50:07;96.40;;;37.63;;
5730;SDS011;2890;51.950;7.668;2023-10-19T02:52:38;82.93;;;36.97;;
5730;SDS011;2890;51.950;7.668;2023-10-19T02:55:06;129.80;;;39.57;;
5730;SDS011;2890;51.950;7.668;2023-10-19T02:57:32;120.63;;;39.13;;
5730;SDS011;2890;51.950;7.668;2023-10-19T02:59:58;85.33;;;36.00;;
5730;SDS011;2890;51.950;7.668;2023-10-19T03:02:25;84.43;;;35.87;;
5730;SDS011;2890;51.950;7.668;2023-10-19T03:04:52;113.10;;;37.80;;
5730;SDS011;2890;51.950;7.668;2023-10-19T03:07:18;103.43;;;38.13;;
5730;SDS011;2890;51.950;7.668;2023-10-19T03:09:44;94.17;;;36.77;;
5730;SDS011;2890;51.950;7.668;2023-10-19T03:12:14;95.23;;;37.60;;
5730;SDS011;2890;51.950;7.668;2023-10-19T03:14:40;108.17;;;37.83;;
5730;SDS011;2890;51.950;7.668;2023-10-19T03:17:06;89.37;;;37.00;;
5730;SDS011;2890;51.950;7.668;2023-10-19T03:19:34;71.47;;;35.40;;
5730;SDS011;2890;51.950;7.668;2023-10-19T03:22:02;93.20;;;36.90;;
5730;SDS011;2890;51.950;7.668;2023-10-19T03:24:31;98.50;;;38.10;;
5730;SDS011;2890;51.950;7.668;2023-10-19T03:27:06;105.10;;;37.87;;
5730;SDS011;2890;51.950;7.668;2023-10-19T03:29:37;83.77;;;36.30;;
5730;SDS011;2890;51.950;7.668;2023-10-19T03:32:05;98.20;;;36.73;;
5730;SDS011;2890;51.950;7.668;2023-10-19T03:34:32;130.43;;;39.97;;
5730;SDS011;2890;51.950;7.668;2023-10-19T03:36:58;90.00;;;37.27;;
5730;SDS011;2890;51.950;7.668;2023-10-19T03:39:31;89.93;;;36.10;;
5730;SDS011;2890;51.950;7.668;2023-10-19T03:41:59;103.20;;;36.67;;
5730;SDS011;2890;51.950;7.668;2023-10-19T03:44:25;115.77;;;37.90;;
5730;SDS011;2890;51.950;7.668;2023-10-19T03:46:52;119.73;;;38.30;;
5730;SDS011;2890;51.950;7.668;2023-10-19T03:49:22;94.30;;;35.50;;
5730;SDS011;2890;51.950;7.668;2023-10-19T03:51:51;78.77;;;34.50;;
5730;SDS011;2890;51.950;7.668;2023-10-19T03:54:25;63.47;;;32.13;;
5730;SDS011;2890;51.950;7.668;2023-10-19T03:56:53;107.87;;;34.03;;
5730;SDS011;2890;51.950;7.668;2023-10-19T03:59:20;106.70;;;36.80;;
5730;SDS011;2890;51.950;7.668;2023-10-19T04:01:48;125.00;;;38.70;;
5730;SDS011;2890;51.950;7.668;2023-10-19T04:04:14;66.43;;;32.50;;
5730;SDS011;2890;51.950;7.668;2023-10-19T04:06:41;87.57;;;34.50;;
5730;SDS011;2890;51.950;7.668;2023-10-19T04:09:12;85.53;;;35.00;;
5730;SDS011;2890;51.950;7.668;2023-10-19T04:11:40;99.20;;;34.03;;
5730;SDS011;2890;51.950;7.668;2023-10-19T04:14:14;88.50;;;35.70;;
5730;SDS011;2890;51.950;7.668;2023-10-19T04:16:41;114.83;;;34.90;;
5730;SDS011;2890;51.950;7.668;2023-10-19T04:19:09;71.10;;;32.30;;
5730;SDS011;2890;51.950;7.668;2023-10-19T04:21:35;98.83;;;34.50;;
5730;SDS011;2890;51.950;7.668;2023-10-19T04:24:04;106.90;;;34.83;;
5730;SDS011;2890;51.950;7.668;2023-10-19T04:26:32;129.53;;;36.63;;
5730;SDS011;2890;51.950;7.668;2023-10-19T04:29:02;119.83;;;36.77;;
5730;SDS011;2890;51.950;7.668;2023-10-19T04:31:36;102.03;;;35.53;;
5730;SDS011;2890;51.950;7.668;2023-10-19T04:34:14;91.23;;;33.43;;
5730;SDS011;2890;51.950;7.668;2023-10-19T04:36:41;80.47;;;32.33;;
5730;SDS011;2890;51.950;7.668;2023-10-19T04:39:08;88.63;;;33.37;;
5730;SDS011;2890;51.950;7.668;2023-10-19T04:41:39;75.13;;;32.77;;
5730;SDS011;2890;51.950;7.668;2023-10-19T04:44:05;108.00;;;33.40;;
5730;SDS011;2890;51.950;7.668;2023-10-19T04:46:33;69.23;;;31.60;;
5730;SDS011;2890;51.950;7.668;2023-10-19T04:49:01;76.77;;;31.70;;
5730;SDS011;2890;51.950;7.668;2023-10-19T04:51:27;81.87;;;32.27;;
5730;SDS011;2890;51.950;7.668;2023-10-19T04:53:54;158.30;;;36.47;;
5730;SDS011;2890;51.950;7.668;2023-10-19T04:56:20;94.13;;;32.60;;
5730;SDS011;2890;51.950;7.668;2023-10-19T04:58:47;98.20;;;33.57;;
5730;SDS011;2890;51.950;7.668;2023-10-19T05:01:13;91.47;;;32.70;;
5730;SDS011;2890;51.950;7.668;2023-10-19T05:03:40;67.17;;;31.23;;
5730;SDS011;2890;51.950;7.668;2023-10-19T05:06:08;89.03;;;35.07;;
5730;SDS011;2890;51.950;7.668;2023-10-19T05:08:35;90.97;;;32.63;;
5730;SDS011;2890;51.950;7.668;2023-10-19T05:11:02;72.53;;;31.50;;
5730;SDS011;2890;51.950;7.668;2023-10-19T05:13:29;121.17;;;35.87;;
5730;SDS011;2890;51.950;7.668;2023-10-19T05:15:56;79.23;;;30.47;;
5730;SDS011;2890;51.950;7.668;2023-10-19T05:18:24;69.83;;;30.63;;
5730;SDS011;2890;51.950;7.668;2023-10-19T05:20:51;76.50;;;31.87;;
5730;SDS011;2890;51.950;7.668;2023-10-19T05:23:22;150.17;;;34.90;;
5730;SDS011;2890;51.950;7.668;2023-10-19T05:25:49;97.07;;;32.63;;
5730;SDS011;2890;51.950;7.668;2023-10-19T05:28:15;67.67;;;29.67;;
5730;SDS011;2890;51.950;7.668;2023-10-19T05:30:41;143.17;;;34.30;;
5730;SDS011;2890;51.950;7.668;2023-10-19T05:33:08;87.97;;;31.77;;
5730;SDS011;2890;51.950;7.668;2023-10-19T05:35:34;134.13;;;33.20;;
5730;SDS011;2890;51.950;7.668;2023-10-19T05:38:05;83.50;;;31.27;;
5730;SDS011;2890;51.950;7.668;2023-10-19T05:40:33;82.10;;;31.93;;
5730;SDS011;2890;51.950;7.668;2023-10-19T05:43:01;56.37;;;28.60;;
5730;SDS011;2890;51.950;7.668;2023-10-19T05:45:27;86.63;;;32.53;;
5730;SDS011;2890;51.950;7.668;2023-10-19T05:47:54;87.07;;;31.80;;
5730;SDS011;2890;51.950;7.668;2023-10-19T05:50:21;71.53;;;30.33;;
5730;SDS011;2890;51.950;7.668;2023-10-19T05:52:47;71.57;;;31.30;;
5730;SDS011;2890;51.950;7.668;2023-10-19T05:55:14;53.83;;;28.63;;
5730;SDS011;2890;51.950;7.668;2023-10-19T05:57:41;105.70;;;32.77;;
5730;SDS011;2890;51.950;7.668;2023-10-19T06:00:08;78.10;;;30.97;;
5730;SDS011;2890;51.950;7.668;2023-10-19T06:02:38;116.27;;;33.33;;
5730;SDS011;2890;51.950;7.668;2023-10-19T06:05:04;82.93;;;30.23;;
5730;SDS011;2890;51.950;7.668;2023-10-19T06:07:31;96.13;;;32.80;;
5730;SDS011;2890;51.950;7.668;2023-10-19T06:09:58;70.97;;;29.80;;
5730;SDS011;2890;51.950;7.668;2023-10-19T06:12:28;67.80;;;29.27;;
5730;SDS011;2890;51.950;7.668;2023-10-19T06:14:56;66.47;;;28.63;;
5730;SDS011;2890;51.950;7.668;2023-10-19T06:17:22;67.87;;;28.57;;
5730;SDS011;2890;51.950;7.668;2023-10-19T06:19:49;73.77;;;29.77;;
5730;SDS011;2890;51.950;7.668;2023-10-19T06:22:15;55.60;;;28.23;;
5730;SDS011;2890;51.950;7.668;2023-10-19T06:24:41;78.47;;;30.27;;
5730;SDS011;2890;51.950;7.668;2023-10-19T06:27:08;54.77;;;28.13;;
5730;SDS011;2890;51.950;7.668;2023-10-19T06:29:35;54.77;;;28.47;;
5730;SDS011;2890;51.950;7.668;2023-10-19T06:32:02;68.80;;;30.57;;
5730;SDS011;2890;51.950;7.668;2023-10-19T06:34:29;105.20;;;33.60;;
5730;SDS011;2890;51.950;7.668;2023-10-19T06:36:57;68.57;;;31.03;;
5730;SDS011;2890;51.950;7.668;2023-10-19T06:39:24;81.70;;;31.83;;
5730;SDS011;2890;51.950;7.668;2023-10-19T06:41:50;61.67;;;30.80;;
5730;SDS011;2890;51.950;7.668;2023-10-19T06:44:17;86.67;;;32.57;;
5730;SDS011;2890;51.950;7.668;2023-10-19T06:46:43;68.37;;;30.70;;
5730;SDS011;2890;51.950;7.668;2023-10-19T06:49:11;69.17;;;32.00;;
5730;SDS011;2890;51.950;7.668;2023-10-19T06:51:37;80.47;;;32.00;;
5730;SDS011;2890;51.950;7.668;2023-10-19T06:54:04;135.73;;;33.50;;
5730;SDS011;2890;51.950;7.668;2023-10-19T06:56:33;77.07;;;30.17;;
5730;SDS011;2890;51.950;7.668;2023-10-19T06:59:02;122.57;;;31.10;;
5730;SDS011;2890;51.950;7.668;2023-10-19T07:01:30;108.67;;;33.40;;
5730;SDS011;2890;51.950;7.668;2023-10-19T07:03:57;57.43;;;29.43;;
5730;SDS011;2890;51.950;7.668;2023-10-19T07:06:25;69.23;;;30.73;;
5730;SDS011;2890;51.950;7.668;2023-10-19T07:08:51;66.50;;;29.37;;
5730;SDS011;2890;51.950;7.668;2023-10-19T07:11:17;48.03;;;27.80;;
5730;SDS011;2890;51.950;7.668;2023-10-19T07:13:44;55.83;;;29.63;;
5730;SDS011;2890;51.950;7.668;2023-10-19T07:16:11;48.47;;;28.17;;
5730;SDS011;2890;51.950;7.668;2023-10-19T07:18:37;48.70;;;28.63;;
5730;SDS011;2890;51.950;7.668;2023-10-19T07:21:04;59.70;;;29.90;;
5730;SDS011;2890;51.950;7.668;2023-10-19T07:23:35;63.57;;;30.17;;
5730;SDS011;2890;51.950;7.668;2023-10-19T07:26:03;52.80;;;30.30;;
5730;SDS011;2890;51.950;7.668;2023-10-19T07:28:30;53.53;;;30.10;;
5730;SDS011;2890;51.950;7.668;2023-10-19T07:30:57;63.70;;;31.20;;
5730;SDS011;2890;51.950;7.668;2023-10-19T07:33:24;62.23;;;30.90;;
5730;SDS011;2890;51.950;7.668;2023-10-19T07:35:51;50.37;;;28.90;;
5730;SDS011;2890;51.950;7.668;2023-10-19T07:38:20;57.93;;;29.30;;
5730;SDS011;2890;51.950;7.668;2023-10-19T07:40:49;57.17;;;29.50;;
5730;SDS011;2890;51.950;7.668;2023-10-19T07:43:17;42.60;;;27.53;;
5730;SDS011;2890;51.950;7.668;2023-10-19T07:45:45;38.53;;;27.50;;
5730;SDS011;2890;51.950;7.668;2023-10-19T07:48:12;37.47;;;26.13;;
5730;SDS011;2890;51.950;7.668;2023-10-19T07:50:38;35.20;;;25.00;;
5730;SDS011;2890;51.950;7.668;2023-10-19T07:53:07;48.27;;;25.97;;
5730;SDS011;2890;51.950;7.668;2023-10-19T07:55:34;49.33;;;26.90;;
5730;SDS011;2890;51.950;7.668;2023-10-19T07:58:02;35.83;;;25.60;;
5730;SDS011;2890;51.950;7.668;2023-10-19T08:00:29;31.13;;;23.80;;
5730;SDS011;2890;51.950;7.668;2023-10-19T08:02:56;35.00;;;24.13;;
5730;SDS011;2890;51.950;7.668;2023-10-19T08:05:23;37.07;;;23.93;;
5730;SDS011;2890;51.950;7.668;2023-10-19T08:07:49;37.63;;;23.80;;
5730;SDS011;2890;51.950;7.668;2023-10-19T08:10:16;35.57;;;23.07;;
5730;SDS011;2890;51.950;7.668;2023-10-19T08:12:44;34.93;;;20.73;;
5730;SDS011;2890;51.950;7.668;2023-10-19T08:15:14;34.13;;;22.50;;
5730;SDS011;2890;51.950;7.668;2023-10-19T08:17:41;32.70;;;20.87;;
5730;SDS011;2890;51.950;7.668;2023-10-19T08:20:08;29.00;;;21.70;;
5730;SDS011;2890;51.950;7.668;2023-10-19T08:22:40;27.93;;;20.27;;
5730;SDS011;2890;51.950;7.668;2023-10-19T08:25:07;28.53;;;19.93;;
5730;SDS011;2890;51.950;7.668;2023-10-19T08:27:38;25.87;;;18.90;;
5730;SDS011;2890;51.950;7.668;2023-10-19T08:30:05;30.07;;;18.87;;
5730;SDS011;2890;51.950;7.668;2023-10-19T08:32:35;24.13;;;17.80;;
5730;SDS011;2890;51.950;7.668;2023-10-19T08:35:01;35.83;;;18.00;;
5730;SDS011;2890;51.950;7.668;2023-10-19T08:37:28;26.90;;;16.40;;
5730;SDS011;2890;51.950;7.668;2023-10-19T08:39:54;20.70;;;16.23;;
5730;SDS011;2890;51.950;7.668;2023-10-19T08:42:20;20.20;;;15.43;;
5730;SDS011;2890;51.950;7.668;2023-10-19T08:44:47;24.60;;;14.80;;
5730;SDS011;2890;51.950;7.668;2023-10-19T08:47:13;20.90;;;14.47;;
5730;SDS011;2890;51.950;7.668;2023-10-19T08:49:42;15.17;;;13.03;;
5730;SDS011;2890;51.950;7.668;2023-10-19T08:52:08;14.00;;;12.60;;
5730;SDS011;2890;51.950;7.668;2023-10-19T08:54:35;14.20;;;12.87;;
5730;SDS011;2890;51.950;7.668;2023-10-19T08:57:01;15.60;;;13.30;;
5730;SDS011;2890;51.950;7.668;2023-10-19T08:59:29;13.20;;;11.67;;
5730;SDS011;2890;51.950;7.668;2023-10-19T09:02:02;12.77;;;11.47;;
5730;SDS011;2890;51.950;7.668;2023-10-19T09:04:28;18.10;;;10.67;;
5730;SDS011;2890;51.950;7.668;2023-10-19T09:06:56;11.93;;;10.40;;
5730;SDS011;2890;51.950;7.668;2023-10-19T09:09:22;15.03;;;10.53;;
5730;SDS011;2890;51.950;7.668;2023-10-19T09:11:50;13.93;;;10.90;;
5730;SDS011;2890;51.950;7.668;2023-10-19T09:14:18;11.63;;;10.27;;
5730;SDS011;2890;51.950;7.668;2023-10-19T09:16:56;11.20;;;9.40;;
5730;SDS011;2890;51.950;7.668;2023-10-19T09:19:35;15.53;;;9.40;;
5730;SDS011;2890;51.950;7.668;2023-10-19T09:22:03;15.50;;;9.70;;
5730;SDS011;2890;51.950;7.668;2023-10-19T09:24:32;10.07;;;9.00;;
5730;SDS011;2890;51.950;7.668;2023-10-19T09:26:59;9.50;;;8.60;;
5730;SDS011;2890;51.950;7.668;2023-10-19T09:29:26;10.53;;;9.50;;
5730;SDS011;2890;51.950;7.668;2023-10-19T09:31:52;11.13;;;8.20;;
5730;SDS011;2890;51.950;7.668;2023-10-19T09:34:22;9.97;;;8.40;;
5730;SDS011;2890;51.950;7.668;2023-10-19T09:36:56;10.43;;;8.30;;
5730;SDS011;2890;51.950;7.668;2023-10-19T09:39:24;9.20;;;7.77;;
5730;SDS011;2890;51.950;7.668;2023-10-19T09:41:50;9.90;;;8.67;;
5730;SDS011;2890;51.950;7.668;2023-10-19T09:44:17;10.90;;;7.97;;
5730;SDS011;2890;51.950;7.668;2023-10-19T09:46:46;8.90;;;7.70;;
5730;SDS011;2890;51.950;7.668;2023-10-19T09:49:13;10.53;;;8.40;;
5730;SDS011;2890;51.950;7.668;2023-10-19T09:51:40;9.47;;;7.80;;
5730;SDS011;2890;51.950;7.668;2023-10-19T09:54:07;17.50;;;8.50;;
5730;SDS011;2890;51.950;7.668;2023-10-19T09:56:38;8.20;;;7.00;;
5730;SDS011;2890;51.950;7.668;2023-10-19T09:59:11;7.57;;;7.03;;
5730;SDS011;2890;51.950;7.668;2023-10-19T10:04:31;6.80;;;6.23;;
5730;SDS011;2890;51.950;7.668;2023-10-19T10:06:58;8.60;;;6.63;;
5730;SDS011;2890;51.950;7.668;2023-10-19T10:09:25;7.70;;;5.90;;
5730;SDS011;2890;51.950;7.668;2023-10-19T10:11:53;8.37;;;7.07;;
5730;SDS011;2890;51.950;7.668;2023-10-19T10:14:20;6.53;;;5.93;;
5730;SDS011;2890;51.950;7.668;2023-10-19T10:16:47;10.37;;;5.83;;
5730;SDS011;2890;51.950;7.668;2023-10-19T10:19:22;7.23;;;6.53;;
5730;SDS011;2890;51.950;7.668;2023-10-19T10:22:03;6.57;;;6.07;;
5730;SDS011;2890;51.950;7.668;2023-10-19T10:24:30;7.30;;;5.97;;
5730;SDS011;2890;51.950;7.668;2023-10-19T10:26:59;6.30;;;5.70;;
5730;SDS011;2890;51.950;7.668;2023-10-19T10:29:26;7.40;;;6.00;;
5730;SDS011;2890;51.950;7.668;2023-10-19T10:31:53;6.33;;;5.77;;
5730;SDS011;2890;51.950;7.668;2023-10-19T10:37:06;6.70;;;5.83;;
5730;SDS011;2890;51.950;7.668;2023-10-19T10:39:33;6.10;;;5.60;;
5730;SDS011;2890;51.950;7.668;2023-10-19T10:42:02;6.87;;;5.50;;
5730;SDS011;2890;51.950;7.668;2023-10-19T10:44:39;5.80;;;5.30;;
5730;SDS011;2890;51.950;7.668;2023-10-19T10:47:06;5.87;;;5.30;;
5730;SDS011;2890;51.950;7.668;2023-10-19T10:49:33;6.00;;;5.30;;
5730;SDS011;2890;51.950;7.668;2023-10-19T10:52:00;10.07;;;5.43;;
5730;SDS011;2890;51.950;7.668;2023-10-19T10:54:26;5.37;;;4.87;;
5730;SDS011;2890;51.950;7.668;2023-10-19T10:56:52;6.60;;;4.70;;
5730;SDS011;2890;51.950;7.668;2023-10-19T10:59:20;10.23;;;4.80;;
5730;SDS011;2890;51.950;7.668;2023-10-19T11:01:46;7.30;;;5.57;;
5730;SDS011;2890;51.950;7.668;2023-10-19T11:04:13;5.07;;;4.53;;
5730;SDS011;2890;51.950;7.668;2023-10-19T11:06:48;6.60;;;4.33;;
5730;SDS011;2890;51.950;7.668;2023-10-19T11:09:15;6.17;;;4.50;;
5730;SDS011;2890;51.950;7.668;2023-10-19T11:11:43;9.63;;;4.60;;
5730;SDS011;2890;51.950;7.668;2023-10-19T11:14:10;15.43;;;4.63;;
5730;SDS011;2890;51.950;7.668;2023-10-19T11:16:38;7.23;;;4.03;;
5730;SDS011;2890;51.950;7.668;2023-10-19T11:19:05;7.30;;;3.93;;
5730;SDS011;2890;51.950;7.668;2023-10-19T11:21:31;6.57;;;4.70;;
5730;SDS011;2890;51.950;7.668;2023-10-19T11:23:57;8.53;;;4.00;;
5730;SDS011;2890;51.950;7.668;2023-10-19T11:26:24;8.10;;;4.50;;
5730;SDS011;2890;51.950;7.668;2023-10-19T11:28:56;7.80;;;4.20;;
5730;SDS011;2890;51.950;7.668;2023-10-19T11:31:23;10.90;;;3.90;;
5730;SDS011;2890;51.950;7.668;2023-10-19T11:33:51;7.70;;;3.93;;
5730;SDS011;2890;51.950;7.668;2023-10-19T11:36:18;5.00;;;3.40;;
5730;SDS011;2890;51.950;7.668;2023-10-19T11:38:45;12.33;;;3.73;;
5730;SDS011;2890;51.950;7.668;2023-10-19T11:41:12;9.60;;;3.53;;
5730;SDS011;2890;51.950;7.668;2023-10-19T11:43:39;4.23;;;2.90;;
5730;SDS011;2890;51.950;7.668;2023-10-19T11:46:05;6.00;;;2.93;;
5730;SDS011;2890;51.950;7.668;2023-10-19T11:48:32;10.87;;;3.70;;
5730;SDS011;2890;51.950;7.668;2023-10-19T11:51:00;9.23;;;3.67;;
5730;SDS011;2890;51.950;7.668;2023-10-19T11:53:29;4.70;;;3.00;;
5730;SDS011;2890;51.950;7.668;2023-10-19T11:55:58;5.20;;;3.37;;
5730;SDS011;2890;51.950;7.668;2023-10-19T11:58:24;5.77;;;3.07;;
5730;SDS011;2890;51.950;7.668;2023-10-19T12:00:50;7.03;;;3.47;;
5730;SDS011;2890;51.950;7.668;2023-10-19T12:03:17;5.13;;;3.10;;
5730;SDS011;2890;51.950;7.668;2023-10-19T12:05:44;6.70;;;3.30;;
5730;SDS011;2890;51.950;7.668;2023-10-19T12:08:12;8.30;;;3.50;;
5730;SDS011;2890;51.950;7.668;2023-10-19T12:10:38;5.27;;;2.93;;
5730;SDS011;2890;51.950;7.668;2023-10-19T12:13:05;3.60;;;2.60;;
5730;SDS011;2890;51.950;7.668;2023-10-19T12:15:33;8.83;;;3.80;;
5730;SDS011;2890;51.950;7.668;2023-10-19T12:17:59;3.50;;;2.87;;
5730;SDS011;2890;51.950;7.668;2023-10-19T12:20:26;5.77;;;2.90;;
5730;SDS011;2890;51.950;7.668;2023-10-19T12:22:53;9.60;;;3.23;;
5730;SDS011;2890;51.950;7.668;2023-10-19T12:25:21;5.37;;;3.27;;
5730;SDS011;2890;51.950;7.668;2023-10-19T12:27:53;4.90;;;3.70;;
5730;SDS011;2890;51.950;7.668;2023-10-19T12:30:20;7.07;;;3.63;;
5730;SDS011;2890;51.950;7.668;2023-10-19T12:32:47;6.17;;;4.03;;
5730;SDS011;2890;51.950;7.668;2023-10-19T12:35:14;5.40;;;3.60;;
5730;SDS011;2890;51.950;7.668;2023-10-19T12:37:40;8.73;;;3.40;;
5730;SDS011;2890;51.950;7.668;2023-10-19T12:40:11;6.60;;;3.37;;
5730;SDS011;2890;51.950;7.668;2023-10-19T12:42:52;4.03;;;3.33;;
5730;SDS011;2890;51.950;7.668;2023-10-19T12:45:19;8.33;;;3.57;;
5730;SDS011;2890;51.950;7.668;2023-10-19T12:47:46;5.17;;;3.33;;
5730;SDS011;2890;51.950;7.668;2023-10-19T12:50:12;5.33;;;3.13;;
5730;SDS011;2890;51.950;7.668;2023-10-19T12:52:39;6.40;;;3.53;;
5730;SDS011;2890;51.950;7.668;2023-10-19T12:58:06;9.37;;;3.40;;
5730;SDS011;2890;51.950;7.668;2023-10-19T13:00:34;6.53;;;2.80;;
5730;SDS011;2890;51.950;7.668;2023-10-19T13:03:06;8.63;;;2.97;;
5730;SDS011;2890;51.950;7.668;2023-10-19T13:05:33;9.20;;;2.97;;
5730;SDS011;2890;51.950;7.668;2023-10-19T13:07:59;6.30;;;2.90;;
5730;SDS011;2890;51.950;7.668;2023-10-19T13:10:28;5.27;;;2.43;;
5730;SDS011;2890;51.950;7.668;2023-10-19T13:12:59;5.87;;;2.73;;
5730;SDS011;2890;51.950;7.668;2023-10-19T13:15:29;4.93;;;2.60;;
5730;SDS011;2890;51.950;7.668;2023-10-19T13:17:57;5.87;;;3.23;;
5730;SDS011;2890;51.950;7.668;2023-10-19T13:20:24;6.97;;;3.10;;
5730;SDS011;2890;51.950;7.668;2023-10-19T13:22:51;6.70;;;3.20;;
5730;SDS011;2890;51.950;7.668;2023-10-19T13:25:17;4.67;;;2.90;;
5730;SDS011;2890;51.950;7.668;2023-10-19T13:27:53;5.33;;;3.23;;
5730;SDS011;2890;51.950;7.668;2023-10-19T13:30:20;4.27;;;2.63;;
5730;SDS011;2890;51.950;7.668;2023-10-19T13:32:47;6.50;;;3.30;;
5730;SDS011;2890;51.950;7.668;2023-10-19T13:35:14;4.50;;;3.50;;
5730;SDS011;2890;51.950;7.668;2023-10-19T13:37:40;4.47;;;3.17;;
5730;SDS011;2890;51.950;7.668;2023-10-19T13:40:07;6.40;;;3.37;;
5730;SDS011;2890;51.950;7.668;2023-10-19T13:42:33;3.50;;;3.20;;
5730;SDS011;2890;51.950;7.668;2023-10-19T13:45:00;5.23;;;3.33;;
5730;SDS011;2890;51.950;7.668;2023-10-19T13:47:26;7.50;;;4.03;;
5730;SDS011;2890;51.950;7.668;2023-10-19T13:49:54;6.23;;;3.83;;
5730;SDS011;2890;51.950;7.668;2023-10-19T13:52:20;7.43;;;3.90;;
5730;SDS011;2890;51.950;7.668;2023-10-19T13:54:49;4.10;;;3.70;;
5730;SDS011;2890;51.950;7.668;2023-10-19T13:57:16;8.37;;;3.60;;
5730;SDS011;2890;51.950;7.668;2023-10-19T13:59:42;8.83;;;3.10;;
5730;SDS011;2890;51.950;7.668;2023-10-19T14:02:08;6.40;;;3.70;;
5730;SDS011;2890;51.950;7.668;2023-10-19T14:04:35;4.83;;;3.47;;
5730;SDS011;2890;51.950;7.668;2023-10-19T14:07:04;5.33;;;3.03;;
5730;SDS011;2890;51.950;7.668;2023-10-19T14:09:31;8.70;;;4.03;;
5730;SDS011;2890;51.950;7.668;2023-10-19T14:11:58;5.57;;;3.30;;
5730;SDS011;2890;51.950;7.668;2023-10-19T14:14:24;5.90;;;2.97;;
5730;SDS011;2890;51.950;7.668;2023-10-19T14:16:52;4.60;;;2.77;;
5730;SDS011;2890;51.950;7.668;2023-10-19T14:19:18;6.90;;;3.30;;
5730;SDS011;2890;51.950;7.668;2023-10-19T14:21:44;6.30;;;3.30;;
5730;SDS011;2890;51.950;7.668;2023-10-19T14:24:13;4.70;;;2.97;;
5730;SDS011;2890;51.950;7.668;2023-10-19T14:26:43;5.27;;;3.23;;
5730;SDS011;2890;51.950;7.668;2023-10-19T14:29:11;6.40;;;3.10;;
5730;SDS011;2890;51.950;7.668;2023-10-19T14:31:38;5.57;;;3.30;;
5730;SDS011;2890;51.950;7.668;2023-10-19T14:34:05;7.80;;;3.77;;
5730;SDS011;2890;51.950;7.668;2023-10-19T14:36:33;8.00;;;3.87;;
5730;SDS011;2890;51.950;7.668;2023-10-19T14:38:59;7.90;;;3.87;;
5730;SDS011;2890;51.950;7.668;2023-10-19T14:41:27;8.27;;;4.13;;
5730;SDS011;2890;51.950;7.668;2023-10-19T14:43:53;6.50;;;3.80;;
5730;SDS011;2890;51.950;7.668;2023-10-19T14:46:19;6.70;;;4.10;;
5730;SDS011;2890;51.950;7.668;2023-10-19T14:48:45;5.73;;;3.40;;
5730;SDS011;2890;51.950;7.668;2023-10-19T14:51:12;7.17;;;3.50;;
5730;SDS011;2890;51.950;7.668;2023-10-19T14:53:38;9.43;;;3.30;;
5730;SDS011;2890;51.950;7.668;2023-10-19T14:56:04;5.53;;;3.53;;
5730;SDS011;2890;51.950;7.668;2023-10-19T14:58:37;4.83;;;3.27;;
5730;SDS011;2890;51.950;7.668;2023-10-19T15:01:03;6.37;;;3.87;;
5730;SDS011;2890;51.950;7.668;2023-10-19T15:03:31;7.07;;;4.03;;
5730;SDS011;2890;51.950;7.668;2023-10-19T15:06:00;7.00;;;4.23;;
5730;SDS011;2890;51.950;7.668;2023-10-19T15:08:26;5.43;;;3.50;;